Time;durP1;ratioP1;P1;durP2;ratioP2;P2;SDS_P1;SDS_P2;PMS_P1;PMS_P2;Temp;Humidity;BMP_temperature;BMP_pressure;BME280_temperature;BME280_humidity;BME280_pressure;Samples;Min_cycle;Max_cycle;Signal;HPM_P1;HPM_P2
2024/01/26 00:00:05;;;;;;;2.50;1.75;;;;;;;10.70;100.00;100547.31;333423;29;18099;-77
2024/01/26 00:00:17;;;;;;;2.28;1.70;;;;;;;10.68;100.00;100549.09;330900;28;4629;-78
2024/01/26 00:00:30;;;;;;;3.80;1.90;;;;;;;10.68;100.00;100551.69;333284;29;17992;-77
2024/01/26 00:00:44;;;;;;;4.30;2.05;;;;;;;10.67;100.00;100550.00;334545;28;17706;-78
2024/01/26 00:00:57;;;;;;;3.05;2.08;;;;;;;10.61;100.00;100555.31;337535;28;4576;-78
2024/01/26 00:01:09;;;;;;;3.20;2.17;;;;;;;10.59;100.00;100557.09;333580;28;18178;-79
2024/01/26 00:01:21;;;;;;;3.22;2.20;;;;;;;10.58;100.00;100550.16;336090;28;4523;-77
2024/01/26 00:01:33;;;;;;;4.35;2.40;;;;;;;10.60;100.00;100553.59;336825;28;18030;-78
2024/01/26 00:01:46;;;;;;;4.35;2.38;;;;;;;10.55;100.00;100555.44;329839;28;17169;-77
2024/01/26 00:02:00;;;;;;;3.55;2.33;;;;;;;10.44;100.00;100553.00;336986;28;4532;-78
2024/01/26 00:02:12;;;;;;;4.72;3.15;;;;;;;10.41;100.00;100552.22;334413;28;18242;-77
2024/01/26 00:02:24;;;;;;;5.28;3.00;;;;;;;10.43;100.00;100555.66;332731;28;18100;-77
2024/01/26 00:02:36;;;;;;;4.18;2.33;;;;;;;10.41;100.00;100547.88;335501;28;4505;-78
2024/01/26 00:02:48;;;;;;;3.08;1.95;;;;;;;10.44;100.00;100553.00;336149;28;5681;-78
2024/01/26 00:03:00;;;;;;;2.65;1.95;;;;;;;10.43;100.00;100550.44;332489;29;18089;-78
2024/01/26 00:03:12;;;;;;;2.63;2.08;;;;;;;10.48;100.00;100553.81;331739;28;4669;-77
2024/01/26 00:03:24;;;;;;;3.60;2.70;;;;;;;10.45;100.00;100553.88;333640;28;6722;-77
2024/01/26 00:03:38;;;;;;;3.88;2.83;;;;;;;10.41;100.00;100557.41;334854;28;5191;-77
2024/01/26 00:03:51;;;;;;;3.03;2.13;;;;;;;10.46;100.00;100558.19;332453;29;18399;-78
2024/01/26 00:04:03;;;;;;;3.22;2.00;;;;;;;10.44;100.00;100549.53;334857;29;5110;-78
2024/01/26 00:04:15;;;;;;;4.05;2.58;;;;;;;10.44;100.00;100557.34;332419;28;17880;-78
2024/01/26 00:04:28;;;;;;;4.82;3.05;;;;;;;10.38;100.00;100559.19;335533;28;5115;-77
2024/01/26 00:04:40;;;;;;;4.90;3.15;;;;;;;10.39;100.00;100550.50;331468;28;17938;-77
2024/01/26 00:04:53;;;;;;;3.95;2.58;;;;;;;10.41;100.00;100552.22;335975;28;17677;-78
2024/01/26 00:05:05;;;;;;;3.65;2.33;;;;;;;10.36;100.00;100553.16;335348;28;4814;-78
2024/01/26 00:05:17;;;;;;;3.50;2.75;;;;;;;10.35;100.00;100554.03;337495;28;5394;-78
2024/01/26 00:05:30;;;;;;;3.95;2.80;;;;;;;10.39;100.00;100554.84;335659;28;12558;-78
2024/01/26 00:05:42;;;;;;;3.60;2.35;;;;;;;10.39;100.00;100549.63;334696;28;18020;-78
2024/01/26 00:05:54;;;;;;;2.50;1.80;;;;;;;10.42;100.00;100551.31;337779;28;4729;-78
2024/01/26 00:06:06;;;;;;;2.78;1.95;;;;;;;10.41;100.00;100547.03;333084;28;18149;-77
2024/01/26 00:06:18;;;;;;;2.92;2.10;;;;;;;10.44;100.00;100552.16;336723;28;5230;-77
2024/01/26 00:06:30;;;;;;;3.38;2.40;;;;;;;10.48;100.00;100543.41;333888;28;19097;-77
2024/01/26 00:06:43;;;;;;;3.30;2.67;;;;;;;10.48;100.00;100549.44;337600;28;4540;-77
2024/01/26 00:06:56;;;;;;;4.35;3.38;;;;;;;10.47;100.00;100552.09;334268;28;17887;-77
2024/01/26 00:07:09;;;;;;;3.67;2.97;;;;;;;10.50;100.00;100554.63;337790;28;5115;-77
2024/01/26 00:07:21;;;;;;;2.63;2.22;;;;;;;10.53;100.00;100549.41;334469;28;18218;-78
2024/01/26 00:07:34;;;;;;;3.25;2.40;;;;;;;10.58;100.00;100545.84;335097;29;4512;-77
2024/01/26 00:07:46;;;;;;;3.78;2.40;;;;;;;10.56;100.00;100546.72;331704;29;18225;-77
2024/01/26 00:07:58;;;;;;;5.60;3.40;;;;;;;10.57;100.00;100543.25;335032;29;5355;-77
2024/01/26 00:08:14;;;;;;;6.35;3.58;;;;;;;10.58;100.00;100540.63;332962;28;17928;-77
2024/01/26 00:08:26;;;;;;;4.78;2.53;;;;;;;10.57;100.00;100543.25;334652;28;17704;-77
2024/01/26 00:08:38;;;;;;;2.85;2.17;;;;;;;10.56;100.00;100536.31;337252;28;5297;-77
2024/01/26 00:08:50;;;;;;;3.80;2.47;;;;;;;10.59;100.00;100544.09;337377;28;6107;-77
2024/01/26 00:09:10;;;;;;;3.97;2.38;;;;;;;10.60;100.00;100543.19;330376;28;18393;-77
2024/01/26 00:09:23;;;;;;;10.73;2.22;;;;;;;10.58;100.00;100543.22;334122;28;18677;-78
2024/01/26 00:09:35;;;;;;;10.82;2.40;;;;;;;10.54;100.00;100540.69;336892;28;5541;-78
2024/01/26 00:09:47;;;;;;;11.88;2.60;;;;;;;10.55;100.00;100539.81;333429;29;17911;-77
2024/01/26 00:09:59;;;;;;;4.35;2.40;;;;;;;10.56;100.00;100541.53;336131;29;4511;-78
2024/01/26 00:10:11;;;;;;;3.90;2.22;;;;;;;10.62;100.00;100540.56;333298;29;16430;-78
2024/01/26 00:10:23;;;;;;;3.97;2.38;;;;;;;10.60;100.00;100537.97;335965;28;5570;-78
2024/01/26 00:10:35;;;;;;;3.10;2.33;;;;;;;10.57;100.00;100549.31;337509;28;4581;-77
2024/01/26 00:10:47;;;;;;;4.18;2.40;;;;;;;10.53;100.00;100541.59;333453;28;18105;-78
2024/01/26 00:10:59;;;;;;;4.07;2.25;;;;;;;10.49;100.00;100539.94;336213;28;5351;-78
2024/01/26 00:11:15;;;;;;;3.90;2.03;;;;;;;10.45;100.00;100543.47;338496;28;8784;-78
2024/01/26 00:11:27;;;;;;;2.80;1.83;;;;;;;10.43;100.00;100540.91;335483;28;17529;-78
2024/01/26 00:11:40;;;;;;;3.17;2.10;;;;;;;10.51;100.00;100543.38;336903;28;4726;-77
2024/01/26 00:11:52;;;;;;;4.68;2.22;;;;;;;10.49;100.00;100538.19;333164;28;12897;-77
2024/01/26 00:12:04;;;;;;;5.50;2.80;;;;;;;10.50;100.00;100539.03;333626;28;17403;-77
2024/01/26 00:12:16;;;;;;;4.75;3.10;;;;;;;10.42;100.00;100543.53;335532;28;9464;-77
2024/01/26 00:12:30;;;;;;;3.47;2.53;;;;;;;10.43;100.00;100547.84;333190;28;18095;-78
2024/01/26 00:12:42;;;;;;;2.47;1.80;;;;;;;10.40;100.00;100546.13;334190;28;17922;-77
2024/01/26 00:12:54;;;;;;;3.35;2.15;;;;;;;10.46;100.00;100546.03;336196;28;4513;-77
2024/01/26 00:13:07;;;;;;;4.65;2.67;;;;;;;10.46;100.00;100546.03;332741;29;4632;-77
2024/01/26 00:13:20;;;;;;;4.75;2.75;;;;;;;10.47;100.00;100542.56;328789;29;17847;-77
2024/01/26 00:13:32;;;;;;;4.18;2.55;;;;;;;10.51;100.00;100543.38;332223;29;4663;-77
2024/01/26 00:13:44;;;;;;;4.07;2.17;;;;;;;10.50;100.00;100549.44;334310;29;4570;-77
2024/01/26 00:13:56;;;;;;;4.10;2.20;;;;;;;10.47;100.00;100544.31;335677;28;4844;-77
2024/01/26 00:14:08;;;;;;;3.10;2.10;;;;;;;10.47;100.00;100542.56;328411;28;5082;-77
2024/01/26 00:14:20;;;;;;;3.63;2.30;;;;;;;10.43;100.00;100540.91;335323;28;5377;-77
2024/01/26 00:14:32;;;;;;;3.15;2.28;;;;;;;10.41;100.00;100541.81;332340;29;11597;-77
2024/01/26 00:14:45;;;;;;;2.60;2.05;;;;;;;10.34;100.00;100541.94;335522;28;18050;-78
2024/01/26 00:14:58;;;;;;;2.70;2.10;;;;;;;10.35;100.00;100542.78;331167;28;4672;-76
2024/01/26 00:15:10;;;;;;;3.30;2.05;;;;;;;10.38;100.00;100543.59;338455;28;4708;-78
2024/01/26 00:15:22;;;;;;;3.72;2.20;;;;;;;10.41;100.00;100541.81;336334;28;4653;-77
2024/01/26 00:15:35;;;;;;;3.00;2.15;;;;;;;10.32;100.00;100541.09;334939;28;18306;-77
2024/01/26 00:15:47;;;;;;;3.70;2.10;;;;;;;10.32;100.00;100542.81;335100;28;4733;-77
2024/01/26 00:15:59;;;;;;;4.18;2.45;;;;;;;10.34;100.00;100541.94;333595;28;18336;-77
2024/01/26 00:16:12;;;;;;;4.70;2.85;;;;;;;10.38;100.00;100533.19;331749;28;4554;-78
2024/01/26 00:16:24;;;;;;;3.78;2.58;;;;;;;10.43;100.00;100537.44;334407;28;17673;-77
2024/01/26 00:16:37;;;;;;;2.85;2.00;;;;;;;10.42;100.00;100538.31;337105;28;5224;-77
2024/01/26 00:16:49;;;;;;;3.30;2.10;;;;;;;10.41;100.00;100541.81;336334;28;18603;-77
2024/01/26 00:17:01;;;;;;;3.50;2.15;;;;;;;10.38;100.00;100537.50;338697;28;5051;-77
2024/01/26 00:17:13;;;;;;;3.08;2.13;;;;;;;10.32;100.00;100543.69;335954;28;18010;-78
2024/01/26 00:17:25;;;;;;;3.47;2.40;;;;;;;10.28;100.00;100538.53;338904;28;5328;-77
2024/01/26 00:17:38;;;;;;;3.30;2.40;;;;;;;10.25;100.00;100542.03;338223;28;4542;-78
2024/01/26 00:17:50;;;;;;;3.22;2.22;;;;;;;10.22;100.00;100536.88;329317;28;17967;-77
2024/01/26 00:18:03;;;;;;;3.55;2.28;;;;;;;10.17;100.00;100544.75;337584;28;5678;-78
2024/01/26 00:18:15;;;;;;;3.22;2.20;;;;;;;10.18;100.00;100540.41;333370;28;17639;-77
2024/01/26 00:18:27;;;;;;;2.67;2.00;;;;;;;10.21;100.00;100542.97;336071;28;5060;-77
2024/01/26 00:18:40;;;;;;;2.38;2.08;;;;;;;10.26;100.00;100541.19;334787;28;17832;-78
2024/01/26 00:18:52;;;;;;;3.58;2.47;;;;;;;10.29;100.00;100543.69;336591;28;5241;-78
2024/01/26 00:19:06;;;;;;;4.15;2.70;;;;;;;10.26;100.00;100538.56;331228;28;18100;-77
2024/01/26 00:19:18;;;;;;;4.03;2.75;;;;;;;10.26;100.00;100538.56;338634;28;4551;-77
2024/01/26 00:19:30;;;;;;;2.60;1.90;;;;;;;10.27;100.00;100537.69;331700;28;18150;-77
2024/01/26 00:19:42;;;;;;;3.55;2.03;;;;;;;10.29;100.00;100542.84;336728;28;4742;-78
2024/01/26 00:19:54;;;;;;;3.63;2.10;;;;;;;10.32;100.00;100540.22;334399;28;16074;-77
2024/01/26 00:20:09;;;;;;;5.25;2.60;;;;;;;10.30;100.00;100539.38;337573;28;5063;-77
2024/01/26 00:20:21;;;;;;;4.28;2.38;;;;;;;10.25;100.00;100541.19;333182;28;18235;-78
2024/01/26 00:20:38;;;;;;;3.08;2.03;;;;;;;10.21;100.00;100545.56;334515;28;17803;-78
2024/01/26 00:20:50;;;;;;;3.40;2.08;;;;;;;10.23;100.00;100543.81;334986;28;19002;-77
2024/01/26 00:21:03;;;;;;;2.88;2.03;;;;;;;10.19;100.00;100544.75;338188;28;4681;-78
2024/01/26 00:21:18;;;;;;;2.97;2.03;;;;;;;10.13;100.00;100542.25;334818;28;12514;-78
2024/01/26 00:21:30;;;;;;;4.55;2.72;;;;;;;10.16;100.00;100536.97;333474;28;17914;-77
2024/01/26 00:21:43;;;;;;;5.47;3.47;;;;;;;10.20;100.00;100541.25;337061;28;4522;-77
2024/01/26 00:21:56;;;;;;;4.72;3.35;;;;;;;10.23;100.00;100538.63;334872;28;12784;-77
2024/01/26 00:22:08;;;;;;;3.42;2.40;;;;;;;10.26;100.00;100542.88;331928;28;4747;-78
2024/01/26 00:22:20;;;;;;;3.63;2.35;;;;;;;10.25;100.00;100541.19;334607;28;16228;-77
2024/01/26 00:22:32;;;;;;;2.83;1.83;;;;;;;10.23;100.00;100543.81;337221;28;4570;-78
2024/01/26 00:22:44;;;;;;;3.17;1.98;;;;;;;10.25;100.00;100542.03;337397;28;4631;-78
2024/01/26 00:22:56;;;;;;;3.67;2.35;;;;;;;10.23;100.00;100542.97;333707;28;18113;-78
2024/01/26 00:23:08;;;;;;;3.90;2.60;;;;;;;10.22;100.00;100542.06;337331;28;5034;-78
2024/01/26 00:23:20;;;;;;;3.45;2.35;;;;;;;10.22;100.00;100542.06;336805;28;18427;-77
2024/01/26 00:23:32;;;;;;;3.30;2.38;;;;;;;10.21;100.00;100548.19;334272;28;18503;-78
2024/01/26 00:23:44;;;;;;;3.03;2.20;;;;;;;10.22;100.00;100542.06;337125;28;5560;-77
2024/01/26 00:23:56;;;;;;;3.58;2.17;;;;;;;10.18;100.00;100540.41;334824;28;18013;-77
2024/01/26 00:24:08;;;;;;;3.78;2.00;;;;;;;10.28;100.00;100542.00;337372;28;4714;-78
2024/01/26 00:24:20;;;;;;;3.90;2.15;;;;;;;10.35;100.00;100543.63;336202;28;5365;-77
2024/01/26 00:24:35;;;;;;;3.95;2.55;;;;;;;10.29;100.00;100533.31;332092;29;17922;-78
2024/01/26 00:24:47;;;;;;;3.42;2.50;;;;;;;10.35;100.00;100542.78;332843;29;20548;-78
2024/01/26 00:25:00;;;;;;;2.92;2.25;;;;;;;10.34;100.00;100544.53;335985;28;4615;-77
2024/01/26 00:25:12;;;;;;;2.75;2.05;;;;;;;10.32;100.00;100538.50;332309;28;16589;-77
2024/01/26 00:25:25;;;;;;;3.33;2.30;;;;;;;10.28;100.00;100542.00;335452;28;17355;-77
2024/01/26 00:25:37;;;;;;;3.78;2.50;;;;;;;10.31;100.00;100541.97;333797;28;18997;-77
2024/01/26 00:25:49;;;;;;;3.83;2.35;;;;;;;10.30;100.00;100539.38;334511;28;4624;-77
2024/01/26 00:26:01;;;;;;;3.53;2.25;;;;;;;10.25;100.00;100541.19;337611;28;4580;-77
2024/01/26 00:26:13;;;;;;;3.10;2.00;;;;;;;10.23;100.00;100542.97;334813;28;17932;-77
2024/01/26 00:26:25;;;;;;;2.70;1.93;;;;;;;10.27;100.00;100540.28;337729;28;4732;-77
2024/01/26 00:26:37;;;;;;;3.13;1.75;;;;;;;10.36;100.00;100527.16;334342;28;18016;-78
2024/01/26 00:26:49;;;;;;;3.25;1.80;;;;;;;10.45;100.00;100535.69;337403;28;5114;-79
2024/01/26 00:27:02;;;;;;;2.85;1.80;;;;;;;10.43;100.00;100534.84;334690;28;5322;-77
2024/01/26 00:27:14;;;;;;;2.60;1.83;;;;;;;10.44;100.00;100536.56;336408;28;5420;-78
2024/01/26 00:27:26;;;;;;;2.88;2.03;;;;;;;10.47;100.00;100531.31;336801;28;5253;-78
2024/01/26 00:27:38;;;;;;;3.17;2.25;;;;;;;10.58;100.00;100537.16;334133;28;19217;-78
2024/01/26 00:27:50;;;;;;;3.72;2.78;;;;;;;10.47;100.00;100533.91;336404;28;4531;-78
2024/01/26 00:28:04;;;;;;;3.70;2.55;;;;;;;10.53;100.00;100526.00;334294;28;6322;-77
2024/01/26 00:28:16;;;;;;;3.13;2.05;;;;;;;10.51;100.00;100527.78;332048;28;4658;-78
2024/01/26 00:28:28;;;;;;;2.80;1.83;;;;;;;10.52;100.00;100530.34;334581;28;15979;-77
2024/01/26 00:28:40;;;;;;;2.85;2.03;;;;;;;10.54;100.00;100528.56;337262;28;4502;-78
2024/01/26 00:28:52;;;;;;;3.20;2.20;;;;;;;10.51;100.00;100533.81;336842;28;12700;-78
2024/01/26 00:29:04;;;;;;;2.95;2.10;;;;;;;10.54;100.00;100530.28;334703;28;19333;-78
2024/01/26 00:29:16;;;;;;;3.13;2.13;;;;;;;10.51;100.00;100528.63;337531;28;5267;-77
2024/01/26 00:29:28;;;;;;;3.97;2.58;;;;;;;10.51;100.00;100530.38;336843;28;16732;-77
2024/01/26 00:29:40;;;;;;;4.10;2.85;;;;;;;10.45;100.00;100526.13;334260;28;15900;-78
2024/01/26 00:29:52;;;;;;;4.40;2.78;;;;;;;10.43;100.00;100529.66;337631;28;4586;-78
2024/01/26 00:30:06;;;;;;;4.85;3.22;;;;;;;10.41;100.00;100526.22;334401;28;19058;-78
2024/01/26 00:30:18;;;;;;;4.82;3.10;;;;;;;10.37;100.00;100525.41;334780;28;15628;-77
2024/01/26 00:30:30;;;;;;;3.10;2.25;;;;;;;10.36;100.00;100527.16;336586;28;4860;-77
2024/01/26 00:30:42;;;;;;;2.67;1.83;;;;;;;10.38;100.00;100530.59;337343;28;4522;-78
2024/01/26 00:30:54;;;;;;;3.40;1.80;;;;;;;10.36;100.00;100527.16;334632;28;18316;-77
2024/01/26 00:31:07;;;;;;;3.70;2.15;;;;;;;10.32;100.00;100528.09;333075;28;4890;-77
2024/01/26 00:31:19;;;;;;;3.05;2.22;;;;;;;10.31;100.00;100534.16;333889;28;12371;-77
2024/01/26 00:31:31;;;;;;;3.17;2.10;;;;;;;10.29;100.00;100528.13;338431;28;4679;-77
2024/01/26 00:31:44;;;;;;;3.05;2.05;;;;;;;10.29;100.00;100525.50;338499;28;5304;-77
2024/01/26 00:31:56;;;;;;;3.10;2.15;;;;;;;10.32;100.00;100522.91;335419;28;18280;-78
2024/01/26 00:32:09;;;;;;;3.20;2.15;;;;;;;10.41;100.00;100531.44;337565;28;4544;-78
2024/01/26 00:32:21;;;;;;;2.85;1.95;;;;;;;10.41;100.00;100531.44;334477;28;18283;-78
2024/01/26 00:32:33;;;;;;;2.35;1.67;;;;;;;10.39;100.00;100540.09;336458;28;5229;-78
2024/01/26 00:32:45;;;;;;;2.70;1.80;;;;;;;10.34;100.00;100536.72;334846;28;16575;-78
2024/01/26 00:32:59;;;;;;;2.90;2.03;;;;;;;10.30;100.00;100534.19;337752;28;5372;-78
2024/01/26 00:33:11;;;;;;;3.10;2.10;;;;;;;10.28;100.00;100526.41;334897;28;18191;-77
2024/01/26 00:33:23;;;;;;;3.83;2.22;;;;;;;10.27;100.00;100535.06;337593;28;4716;-78
2024/01/26 00:33:35;;;;;;;4.63;2.45;;;;;;;10.24;100.00;100540.34;334565;28;17925;-78
2024/01/26 00:33:48;;;;;;;4.18;2.35;;;;;;;10.22;100.00;100521.28;337498;28;4526;-78
2024/01/26 00:34:00;;;;;;;3.00;1.73;;;;;;;10.27;100.00;100524.69;335791;28;10988;-78
2024/01/26 00:34:12;;;;;;;2.83;1.80;;;;;;;10.26;100.00;100533.38;335435;28;18337;-78
2024/01/26 00:34:24;;;;;;;3.72;1.95;;;;;;;10.26;100.00;100532.50;336281;28;4594;-78
2024/01/26 00:34:36;;;;;;;3.33;1.95;;;;;;;10.25;100.00;100536.00;334091;28;17971;-78
2024/01/26 00:34:49;;;;;;;3.42;2.10;;;;;;;10.31;100.00;100528.13;337725;28;4653;-77
2024/01/26 00:35:01;;;;;;;2.70;2.10;;;;;;;10.28;100.00;100531.59;334934;28;12756;-77
2024/01/26 00:35:15;;;;;;;2.67;2.00;;;;;;;10.38;100.00;100528.00;337571;28;4691;-77
2024/01/26 00:35:27;;;;;;;3.38;2.42;;;;;;;10.45;100.00;100533.09;330350;28;17710;-77
2024/01/26 00:35:40;;;;;;;3.83;2.70;;;;;;;10.37;100.00;100534.06;334880;28;13652;-77
2024/01/26 00:35:52;;;;;;;3.97;2.35;;;;;;;10.36;100.00;100524.56;337601;28;4538;-78
2024/01/26 00:36:04;;;;;;;3.65;2.25;;;;;;;10.34;100.00;100530.66;337519;28;4543;-77
2024/01/26 00:36:16;;;;;;;2.95;2.13;;;;;;;10.41;100.00;100527.06;334694;28;17964;-78
2024/01/26 00:36:28;;;;;;;2.83;2.13;;;;;;;10.44;100.00;100528.75;337380;28;4508;-78
2024/01/26 00:36:40;;;;;;;3.30;2.30;;;;;;;10.42;100.00;100530.53;335032;28;16342;-78
2024/01/26 00:36:52;;;;;;;3.67;2.22;;;;;;;10.34;100.00;100534.13;332002;28;17944;-78
2024/01/26 00:37:04;;;;;;;4.43;2.55;;;;;;;10.35;100.00;100530.63;329865;28;5090;-78
2024/01/26 00:37:16;;;;;;;3.97;2.40;;;;;;;10.37;100.00;100525.41;331311;29;18320;-78
2024/01/26 00:37:28;;;;;;;3.97;2.88;;;;;;;10.38;100.00;100535.78;333832;29;4665;-77
2024/01/26 00:37:40;;;;;;;3.90;2.90;;;;;;;10.31;100.00;100531.56;332437;29;5279;-77
2024/01/26 00:37:52;;;;;;;3.80;2.72;;;;;;;10.34;100.00;100526.34;332560;29;18661;-77
2024/01/26 00:38:05;;;;;;;3.97;2.10;;;;;;;10.39;100.00;100539.25;335162;28;4519;-78
2024/01/26 00:38:17;;;;;;;4.40;2.08;;;;;;;10.42;100.00;100527.94;333865;28;13709;-77
2024/01/26 00:38:29;;;;;;;4.95;2.42;;;;;;;10.44;100.00;100528.75;336385;28;5581;-77
2024/01/26 00:38:41;;;;;;;4.03;2.50;;;;;;;10.39;100.00;100529.69;331322;28;4695;-78
2024/01/26 00:38:53;;;;;;;3.55;2.17;;;;;;;10.41;100.00;100521.88;336394;28;18030;-77
2024/01/26 00:39:06;;;;;;;4.47;2.25;;;;;;;10.39;100.00;100528.84;338719;28;5081;-78
2024/01/26 00:39:18;;;;;;;4.18;2.20;;;;;;;10.38;100.00;100527.13;335850;28;19122;-78
2024/01/26 00:39:30;;;;;;;3.97;2.20;;;;;;;10.41;100.00;100528.81;339018;28;4514;-78
2024/01/26 00:39:42;;;;;;;3.90;2.10;;;;;;;10.38;100.00;100522.78;336539;28;4930;-77
2024/01/26 00:39:55;;;;;;;3.10;2.00;;;;;;;10.35;100.00;100533.22;334472;28;5240;-78
2024/01/26 00:40:07;;;;;;;3.50;1.80;;;;;;;10.35;100.00;100524.59;337039;28;6207;-78
2024/01/26 00:40:20;;;;;;;3.88;2.40;;;;;;;10.41;100.00;100528.81;336361;28;17915;-79
2024/01/26 00:40:32;;;;;;;3.85;2.60;;;;;;;10.49;100.00;100529.53;335889;28;16354;-79
2024/01/26 00:40:44;;;;;;;3.75;2.22;;;;;;;10.51;100.00;100527.78;338753;28;4605;-78
2024/01/26 00:40:56;;;;;;;3.08;1.80;;;;;;;10.51;100.00;100539.03;339388;28;4895;-78
2024/01/26 00:41:10;;;;;;;2.58;1.80;;;;;;;10.54;100.00;100540.69;335258;28;18121;-78
2024/01/26 00:41:22;;;;;;;2.88;1.90;;;;;;;10.42;100.00;100533.13;337980;28;4623;-78
2024/01/26 00:41:34;;;;;;;3.50;2.10;;;;;;;10.46;100.00;100539.97;334866;28;18274;-78
2024/01/26 00:41:46;;;;;;;3.72;2.40;;;;;;;10.46;100.00;100525.22;338491;28;4545;-78
2024/01/26 00:41:58;;;;;;;4.13;2.42;;;;;;;10.51;100.00;100539.03;335166;28;16642;-78
2024/01/26 00:42:10;;;;;;;3.88;2.28;;;;;;;10.47;100.00;100528.72;337866;28;5353;-78
2024/01/26 00:42:22;;;;;;;3.22;2.00;;;;;;;10.38;100.00;100533.19;337823;28;5273;-78
2024/01/26 00:42:34;;;;;;;4.20;2.28;;;;;;;10.37;100.00;100536.66;337405;28;17410;-78
2024/01/26 00:42:46;;;;;;;5.20;2.72;;;;;;;10.38;100.00;100535.78;338944;28;4575;-78
2024/01/26 00:42:58;;;;;;;5.95;2.65;;;;;;;10.39;100.00;100539.25;335260;28;5714;-78
2024/01/26 00:43:10;;;;;;;4.35;2.38;;;;;;;10.35;100.00;100541.03;337932;28;4565;-77
2024/01/26 00:43:23;;;;;;;3.80;2.40;;;;;;;10.34;100.00;100536.72;335581;28;13051;-77
2024/01/26 00:43:35;;;;;;;3.65;2.40;;;;;;;10.35;100.00;100533.22;336739;28;4573;-78
2024/01/26 00:43:47;;;;;;;3.20;2.30;;;;;;;10.32;100.00;100543.69;337513;28;4662;-78
2024/01/26 00:43:59;;;;;;;4.32;2.20;;;;;;;10.31;100.00;100543.72;334971;28;18048;-78
2024/01/26 00:44:11;;;;;;;4.72;2.20;;;;;;;10.27;100.00;100548.06;337271;28;5469;-78
2024/01/26 00:44:23;;;;;;;5.45;2.55;;;;;;;10.30;100.00;100540.28;336905;28;5343;-77
2024/01/26 00:44:36;;;;;;;5.55;2.88;;;;;;;10.26;100.00;100542.88;333430;29;18419;-77
2024/01/26 00:44:49;;;;;;;4.75;2.58;;;;;;;10.25;100.00;100536.00;335101;28;12549;-77
2024/01/26 00:45:01;;;;;;;3.10;2.10;;;;;;;10.22;100.00;100546.44;337471;28;4558;-78
2024/01/26 00:45:13;;;;;;;3.40;2.17;;;;;;;10.29;100.00;100541.09;337872;28;5320;-77
2024/01/26 00:45:25;;;;;;;4.38;2.38;;;;;;;10.33;100.00;100540.19;334461;28;18594;-77
2024/01/26 00:45:37;;;;;;;5.03;2.30;;;;;;;10.36;100.00;100545.34;337287;28;5167;-78
2024/01/26 00:45:49;;;;;;;4.25;2.25;;;;;;;10.34;100.00;100551.44;330743;28;19036;-77
2024/01/26 00:46:01;;;;;;;5.13;2.60;;;;;;;10.38;100.00;100543.59;337811;28;4706;-77
2024/01/26 00:46:13;;;;;;;4.15;2.60;;;;;;;10.41;100.00;100541.81;336286;28;13242;-77
2024/01/26 00:46:25;;;;;;;3.22;2.22;;;;;;;10.44;100.00;100546.94;333340;28;18875;-77
2024/01/26 00:46:37;;;;;;;2.90;2.10;;;;;;;10.38;100.00;100541.00;338099;28;5266;-78
2024/01/26 00:46:49;;;;;;;3.08;2.10;;;;;;;10.36;100.00;100545.34;334291;28;12546;-77
2024/01/26 00:47:01;;;;;;;3.53;2.40;;;;;;;10.40;100.00;100543.53;337826;28;4542;-78
2024/01/26 00:47:13;;;;;;;5.60;2.67;;;;;;;10.41;100.00;100542.66;338034;28;5013;-77
2024/01/26 00:47:25;;;;;;;5.53;2.60;;;;;;;10.48;100.00;100543.41;331928;28;5513;-77
2024/01/26 00:47:38;;;;;;;3.67;2.17;;;;;;;10.49;100.00;100545.13;338265;28;5398;-78
2024/01/26 00:47:50;;;;;;;3.35;2.00;;;;;;;10.50;100.00;100541.63;335319;28;12725;-78
2024/01/26 00:48:02;;;;;;;3.70;2.13;;;;;;;10.50;100.00;100552.03;337590;28;4491;-78
2024/01/26 00:48:14;;;;;;;3.72;2.20;;;;;;;10.48;100.00;100546.84;335585;28;4594;-77
2024/01/26 00:48:27;;;;;;;3.08;2.20;;;;;;;10.45;100.00;100546.94;337547;28;4503;-78
2024/01/26 00:48:39;;;;;;;2.60;2.15;;;;;;;10.48;100.00;100546.00;336121;28;5053;-77
2024/01/26 00:48:54;;;;;;;3.00;2.25;;;;;;;10.47;100.00;100541.72;334683;28;18166;-77
2024/01/26 00:49:06;;;;;;;3.83;2.25;;;;;;;10.50;100.00;100554.63;334948;28;17864;-78
2024/01/26 00:49:18;;;;;;;4.00;2.08;;;;;;;10.47;100.00;100547.75;337289;28;5151;-79
2024/01/26 00:49:31;;;;;;;4.22;2.25;;;;;;;10.52;100.00;100545.06;334029;28;17632;-79
2024/01/26 00:49:59;;;;;;;3.13;2.20;;;;;;;10.53;100.00;100546.78;335619;28;18292;-79
2024/01/26 00:50:11;;;;;;;3.38;2.45;;;;;;;10.55;100.00;100545.03;335391;28;19149;-79
2024/01/26 00:50:24;;;;;;;3.90;2.70;;;;;;;10.47;100.00;100539.09;334503;28;5708;-80
2024/01/26 00:50:37;;;;;;;3.58;2.55;;;;;;;10.42;100.00;100546.13;335766;28;13564;-79
2024/01/26 00:50:54;;;;;;;3.03;2.30;;;;;;;10.43;100.00;100547.84;337791;28;4509;-79
2024/01/26 00:51:06;;;;;;;3.00;2.10;;;;;;;10.46;100.00;100546.03;335081;28;17613;-78
2024/01/26 00:51:18;;;;;;;3.10;2.10;;;;;;;10.41;100.00;100544.41;337460;28;4759;-79
2024/01/26 00:51:30;;;;;;;2.95;2.20;;;;;;;10.42;100.00;100543.53;336588;28;12633;-78
2024/01/26 00:51:42;;;;;;;3.30;2.40;;;;;;;10.39;100.00;100541.84;331843;28;17303;-79
2024/01/26 00:51:55;;;;;;;3.10;2.17;;;;;;;10.41;100.00;100541.81;339554;28;4690;-79
2024/01/26 00:52:07;;;;;;;3.13;2.05;;;;;;;10.41;100.00;100539.22;336205;28;18346;-79
2024/01/26 00:52:19;;;;;;;3.50;2.10;;;;;;;10.42;100.00;100548.72;339382;28;5313;-78
2024/01/26 00:52:31;;;;;;;3.60;2.00;;;;;;;10.34;100.00;100552.31;334496;28;18139;-79
2024/01/26 00:52:43;;;;;;;3.42;2.00;;;;;;;10.36;100.00;100540.16;337496;28;4779;-79
2024/01/26 00:52:55;;;;;;;3.50;2.13;;;;;;;10.37;100.00;100541.84;338017;28;4854;-78
2024/01/26 00:53:08;;;;;;;3.15;2.10;;;;;;;10.42;100.00;100538.31;336528;28;18122;-79
2024/01/26 00:53:21;;;;;;;2.92;2.20;;;;;;;10.46;100.00;100534.78;338945;28;4704;-79
2024/01/26 00:53:33;;;;;;;3.08;2.30;;;;;;;10.46;100.00;100546.03;335436;28;18272;-79
2024/01/26 00:53:45;;;;;;;3.03;2.13;;;;;;;10.46;100.00;100542.56;338839;28;4878;-79
2024/01/26 00:53:57;;;;;;;3.60;2.00;;;;;;;10.44;100.00;100536.56;335855;28;18253;-79
2024/01/26 00:54:09;;;;;;;3.83;2.03;;;;;;;10.40;100.00;100540.94;339653;28;5216;-78
2024/01/26 00:54:21;;;;;;;3.22;2.20;;;;;;;10.46;100.00;100547.78;339167;28;4547;-79
2024/01/26 00:54:33;;;;;;;3.30;2.20;;;;;;;10.47;100.00;100541.72;330986;28;17784;-79
2024/01/26 00:54:46;;;;;;;3.47;2.10;;;;;;;10.43;100.00;100538.31;339081;28;4609;-79
2024/01/26 00:54:59;;;;;;;4.93;2.05;;;;;;;10.48;100.00;100539.06;334456;28;18004;-79
2024/01/26 00:55:11;;;;;;;5.53;2.03;;;;;;;10.56;100.00;100528.53;338349;28;4680;-78
2024/01/26 00:55:29;;;;;;;6.80;2.03;;;;;;;10.60;100.00;100543.19;335077;28;17923;-79
2024/01/26 00:55:41;;;;;;;4.15;2.15;;;;;;;10.59;100.00;100538.88;334492;28;17860;-79
2024/01/26 00:55:53;;;;;;;3.28;2.22;;;;;;;10.46;100.00;100545.19;336934;28;18014;-78
2024/01/26 00:56:05;;;;;;;3.70;2.30;;;;;;;10.45;100.00;100533.09;336713;28;5194;-79
2024/01/26 00:56:17;;;;;;;3.10;2.00;;;;;;;10.48;100.00;100533.00;338225;28;4720;-78
2024/01/26 00:56:30;;;;;;;3.15;2.20;;;;;;;10.46;100.00;100530.44;335319;28;17975;-78
2024/01/26 00:56:42;;;;;;;3.78;2.35;;;;;;;10.44;100.00;100537.41;337880;28;4753;-79
2024/01/26 00:56:54;;;;;;;4.63;2.50;;;;;;;10.41;100.00;100527.06;335394;28;17775;-78
2024/01/26 00:57:06;;;;;;;4.07;2.35;;;;;;;10.37;100.00;100534.06;337686;28;5048;-78
2024/01/26 00:57:18;;;;;;;3.13;2.17;;;;;;;10.37;100.00;100526.25;335249;28;17896;-79
2024/01/26 00:57:30;;;;;;;3.03;2.10;;;;;;;10.37;100.00;100534.06;333207;28;4578;-78
2024/01/26 00:57:43;;;;;;;3.17;2.15;;;;;;;10.35;100.00;100533.22;334646;28;10634;-78
2024/01/26 00:57:56;;;;;;;3.38;2.30;;;;;;;10.38;100.00;100534.91;337807;28;4502;-79
2024/01/26 00:58:08;;;;;;;3.42;2.30;;;;;;;10.41;100.00;100536.63;334682;28;15327;-78
2024/01/26 00:58:21;;;;;;;4.35;2.25;;;;;;;10.42;100.00;100533.13;338147;28;5250;-79